sensor_id;sensor_type;location;lat;lon;timestamp;P1;durP1;ratioP1;P2;durP2;ratioP2
6051;SDS011;3054;51.204;4.430;2022-07-03T00:01:34;4.00;;;2.03;;
6051;SDS011;3054;51.204;4.430;2022-07-03T00:04:02;6.87;;;1.80;;
6051;SDS011;3054;51.204;4.430;2022-07-03T00:06:31;4.17;;;1.30;;
6051;SDS011;3054;51.204;4.430;2022-07-03T00:08:59;3.70;;;1.33;;
6051;SDS011;3054;51.204;4.430;2022-07-03T00:11:26;4.00;;;1.50;;
6051;SDS011;3054;51.204;4.430;2022-07-03T00:13:53;6.20;;;1.77;;
6051;SDS011;3054;51.204;4.430;2022-07-03T00:16:20;4.87;;;1.80;;
6051;SDS011;3054;51.204;4.430;2022-07-03T00:18:47;3.33;;;1.47;;
6051;SDS011;3054;51.204;4.430;2022-07-03T00:21:23;2.83;;;2.07;;
6051;SDS011;3054;51.204;4.430;2022-07-03T00:23:56;4.73;;;1.77;;
6051;SDS011;3054;51.204;4.430;2022-07-03T00:26:26;4.80;;;1.63;;
6051;SDS011;3054;51.204;4.430;2022-07-03T00:28:56;2.80;;;1.30;;
6051;SDS011;3054;51.204;4.430;2022-07-03T00:31:25;4.07;;;1.60;;
6051;SDS011;3054;51.204;4.430;2022-07-03T00:33:54;7.33;;;1.67;;
6051;SDS011;3054;51.204;4.430;2022-07-03T00:36:24;6.10;;;1.60;;
6051;SDS011;3054;51.204;4.430;2022-07-03T00:38:53;2.23;;;1.13;;
6051;SDS011;3054;51.204;4.430;2022-07-03T00:41:26;3.20;;;2.20;;
6051;SDS011;3054;51.204;4.430;2022-07-03T00:43:55;2.30;;;1.13;;
6051;SDS011;3054;51.204;4.430;2022-07-03T00:46:22;5.43;;;1.93;;
6051;SDS011;3054;51.204;4.430;2022-07-03T00:48:51;3.77;;;1.53;;
6051;SDS011;3054;51.204;4.430;2022-07-03T00:51:20;3.00;;;1.77;;
6051;SDS011;3054;51.204;4.430;2022-07-03T00:53:50;2.67;;;1.57;;
6051;SDS011;3054;51.204;4.430;2022-07-03T00:56:20;6.33;;;2.00;;
6051;SDS011;3054;51.204;4.430;2022-07-03T00:58:53;3.83;;;1.80;;
6051;SDS011;3054;51.204;4.430;2022-07-03T01:01:22;7.80;;;1.93;;
6051;SDS011;3054;51.204;4.430;2022-07-03T01:03:53;3.80;;;1.63;;
6051;SDS011;3054;51.204;4.430;2022-07-03T01:06:30;6.90;;;1.90;;
6051;SDS011;3054;51.204;4.430;2022-07-03T01:09:02;5.40;;;2.00;;
6051;SDS011;3054;51.204;4.430;2022-07-03T01:11:31;5.50;;;2.43;;
6051;SDS011;3054;51.204;4.430;2022-07-03T01:14:08;12.70;;;2.87;;
6051;SDS011;3054;51.204;4.430;2022-07-03T01:16:44;5.33;;;2.47;;
6051;SDS011;3054;51.204;4.430;2022-07-03T01:19:24;5.30;;;2.27;;
6051;SDS011;3054;51.204;4.430;2022-07-03T01:22:15;6.60;;;1.93;;
6051;SDS011;3054;51.204;4.430;2022-07-03T01:25:03;6.50;;;2.20;;
6051;SDS011;3054;51.204;4.430;2022-07-03T01:27:48;11.13;;;2.13;;
6051;SDS011;3054;51.204;4.430;2022-07-03T01:30:23;7.90;;;2.63;;
6051;SDS011;3054;51.204;4.430;2022-07-03T01:32:53;4.67;;;2.17;;
6051;SDS011;3054;51.204;4.430;2022-07-03T01:35:26;3.33;;;2.03;;
6051;SDS011;3054;51.204;4.430;2022-07-03T01:38:00;4.53;;;2.23;;
6051;SDS011;3054;51.204;4.430;2022-07-03T01:40:31;3.80;;;2.40;;
6051;SDS011;3054;51.204;4.430;2022-07-03T01:43:01;5.47;;;2.10;;
6051;SDS011;3054;51.204;4.430;2022-07-03T01:45:29;5.77;;;2.60;;
6051;SDS011;3054;51.204;4.430;2022-07-03T01:47:58;5.17;;;2.50;;
6051;SDS011;3054;51.204;4.430;2022-07-03T01:50:27;7.73;;;2.80;;
6051;SDS011;3054;51.204;4.430;2022-07-03T01:52:55;6.07;;;2.37;;
6051;SDS011;3054;51.204;4.430;2022-07-03T01:55:25;11.93;;;2.70;;
6051;SDS011;3054;51.204;4.430;2022-07-03T01:57:53;8.17;;;2.97;;
6051;SDS011;3054;51.204;4.430;2022-07-03T02:00:22;11.97;;;3.73;;
6051;SDS011;3054;51.204;4.430;2022-07-03T02:02:59;4.07;;;1.80;;
6051;SDS011;3054;51.204;4.430;2022-07-03T02:05:34;7.20;;;2.50;;
6051;SDS011;3054;51.204;4.430;2022-07-03T02:10:57;13.30;;;2.80;;
6051;SDS011;3054;51.204;4.430;2022-07-03T02:13:38;6.10;;;1.90;;
6051;SDS011;3054;51.204;4.430;2022-07-03T02:16:09;6.60;;;2.53;;
6051;SDS011;3054;51.204;4.430;2022-07-03T02:18:43;9.10;;;2.60;;
6051;SDS011;3054;51.204;4.430;2022-07-03T02:21:13;9.57;;;3.10;;
6051;SDS011;3054;51.204;4.430;2022-07-03T02:23:43;8.70;;;2.30;;
6051;SDS011;3054;51.204;4.430;2022-07-03T02:26:19;7.20;;;2.20;;
6051;SDS011;3054;51.204;4.430;2022-07-03T02:28:56;6.93;;;2.53;;
6051;SDS011;3054;51.204;4.430;2022-07-03T02:31:31;10.00;;;2.40;;
6051;SDS011;3054;51.204;4.430;2022-07-03T02:34:00;11.10;;;2.77;;
6051;SDS011;3054;51.204;4.430;2022-07-03T02:36:29;6.97;;;3.13;;
6051;SDS011;3054;51.204;4.430;2022-07-03T02:38:59;9.13;;;2.30;;
6051;SDS011;3054;51.204;4.430;2022-07-03T02:41:28;7.80;;;2.10;;
6051;SDS011;3054;51.204;4.430;2022-07-03T02:44:04;7.90;;;2.60;;
6051;SDS011;3054;51.204;4.430;2022-07-03T02:46:42;6.80;;;3.30;;
6051;SDS011;3054;51.204;4.430;2022-07-03T02:49:22;10.17;;;3.50;;
6051;SDS011;3054;51.204;4.430;2022-07-03T02:52:12;6.03;;;2.57;;
6051;SDS011;3054;51.204;4.430;2022-07-03T02:54:53;17.67;;;2.60;;
6051;SDS011;3054;51.204;4.430;2022-07-03T02:57:23;4.73;;;3.10;;
6051;SDS011;3054;51.204;4.430;2022-07-03T02:59:53;6.37;;;2.80;;
6051;SDS011;3054;51.204;4.430;2022-07-03T03:02:38;8.87;;;3.10;;
6051;SDS011;3054;51.204;4.430;2022-07-03T03:05:21;7.63;;;3.50;;
6051;SDS011;3054;51.204;4.430;2022-07-03T03:07:55;6.70;;;2.40;;
6051;SDS011;3054;51.204;4.430;2022-07-03T03:10:30;13.13;;;3.70;;
6051;SDS011;3054;51.204;4.430;2022-07-03T03:13:02;16.13;;;2.67;;
6051;SDS011;3054;51.204;4.430;2022-07-03T03:15:31;7.70;;;3.90;;
6051;SDS011;3054;51.204;4.430;2022-07-03T03:18:02;9.20;;;2.80;;
6051;SDS011;3054;51.204;4.430;2022-07-03T03:20:31;5.97;;;3.60;;
6051;SDS011;3054;51.204;4.430;2022-07-03T03:23:00;4.90;;;3.40;;
6051;SDS011;3054;51.204;4.430;2022-07-03T03:25:50;9.87;;;3.27;;
6051;SDS011;3054;51.204;4.430;2022-07-03T03:28:19;10.87;;;4.30;;
6051;SDS011;3054;51.204;4.430;2022-07-03T03:30:47;3.30;;;2.60;;
6051;SDS011;3054;51.204;4.430;2022-07-03T03:33:17;8.03;;;3.60;;
6051;SDS011;3054;51.204;4.430;2022-07-03T03:35:45;7.03;;;2.77;;
6051;SDS011;3054;51.204;4.430;2022-07-03T03:38:12;7.83;;;2.70;;
6051;SDS011;3054;51.204;4.430;2022-07-03T03:40:38;6.83;;;3.37;;
6051;SDS011;3054;51.204;4.430;2022-07-03T03:43:05;11.10;;;4.57;;
6051;SDS011;3054;51.204;4.430;2022-07-03T03:45:35;12.27;;;3.63;;
6051;SDS011;3054;51.204;4.430;2022-07-03T03:48:02;10.37;;;4.30;;
6051;SDS011;3054;51.204;4.430;2022-07-03T03:50:31;8.10;;;4.40;;
6051;SDS011;3054;51.204;4.430;2022-07-03T03:52:58;9.23;;;3.93;;
6051;SDS011;3054;51.204;4.430;2022-07-03T03:55:26;10.60;;;4.40;;
6051;SDS011;3054;51.204;4.430;2022-07-03T03:57:53;4.37;;;2.97;;
6051;SDS011;3054;51.204;4.430;2022-07-03T04:00:20;6.47;;;3.83;;
6051;SDS011;3054;51.204;4.430;2022-07-03T04:02:47;5.07;;;2.80;;
6051;SDS011;3054;51.204;4.430;2022-07-03T04:05:14;11.37;;;4.10;;
6051;SDS011;3054;51.204;4.430;2022-07-03T04:07:42;9.57;;;3.57;;
6051;SDS011;3054;51.204;4.430;2022-07-03T04:10:09;5.80;;;3.07;;
6051;SDS011;3054;51.204;4.430;2022-07-03T04:12:36;10.63;;;3.90;;
6051;SDS011;3054;51.204;4.430;2022-07-03T04:15:03;6.70;;;3.70;;
6051;SDS011;3054;51.204;4.430;2022-07-03T04:17:32;5.77;;;3.33;;
6051;SDS011;3054;51.204;4.430;2022-07-03T04:19:59;10.97;;;3.23;;
6051;SDS011;3054;51.204;4.430;2022-07-03T04:22:25;6.23;;;3.40;;
6051;SDS011;3054;51.204;4.430;2022-07-03T04:24:54;13.10;;;3.97;;
6051;SDS011;3054;51.204;4.430;2022-07-03T04:27:21;7.23;;;3.80;;
6051;SDS011;3054;51.204;4.430;2022-07-03T04:29:48;5.93;;;3.40;;
6051;SDS011;3054;51.204;4.430;2022-07-03T04:32:17;7.10;;;3.93;;
6051;SDS011;3054;51.204;4.430;2022-07-03T04:34:44;12.73;;;3.87;;
6051;SDS011;3054;51.204;4.430;2022-07-03T04:37:11;9.73;;;3.67;;
6051;SDS011;3054;51.204;4.430;2022-07-03T04:39:38;9.20;;;4.00;;
6051;SDS011;3054;51.204;4.430;2022-07-03T04:42:06;12.23;;;4.87;;
6051;SDS011;3054;51.204;4.430;2022-07-03T04:44:33;10.97;;;4.90;;
6051;SDS011;3054;51.204;4.430;2022-07-03T04:47:00;11.40;;;3.97;;
6051;SDS011;3054;51.204;4.430;2022-07-03T04:49:27;9.17;;;4.97;;
6051;SDS011;3054;51.204;4.430;2022-07-03T04:51:54;9.40;;;3.20;;
6051;SDS011;3054;51.204;4.430;2022-07-03T04:54:21;11.90;;;4.00;;
6051;SDS011;3054;51.204;4.430;2022-07-03T04:56:48;6.37;;;3.20;;
6051;SDS011;3054;51.204;4.430;2022-07-03T04:59:17;5.93;;;3.77;;
6051;SDS011;3054;51.204;4.430;2022-07-03T05:01:43;11.17;;;4.90;;
6051;SDS011;3054;51.204;4.430;2022-07-03T05:04:13;11.87;;;4.67;;
6051;SDS011;3054;51.204;4.430;2022-07-03T05:06:39;14.47;;;5.63;;
6051;SDS011;3054;51.204;4.430;2022-07-03T05:09:06;7.77;;;5.30;;
6051;SDS011;3054;51.204;4.430;2022-07-03T05:11:33;10.47;;;5.33;;
6051;SDS011;3054;51.204;4.430;2022-07-03T05:14:00;12.70;;;5.97;;
6051;SDS011;3054;51.204;4.430;2022-07-03T05:16:29;8.00;;;4.90;;
6051;SDS011;3054;51.204;4.430;2022-07-03T05:18:56;7.07;;;5.30;;
6051;SDS011;3054;51.204;4.430;2022-07-03T05:21:23;8.37;;;5.50;;
6051;SDS011;3054;51.204;4.430;2022-07-03T05:23:50;13.50;;;6.00;;
6051;SDS011;3054;51.204;4.430;2022-07-03T05:26:18;8.27;;;5.90;;
6051;SDS011;3054;51.204;4.430;2022-07-03T05:28:44;9.13;;;5.63;;
6051;SDS011;3054;51.204;4.430;2022-07-03T05:31:12;8.43;;;5.27;;
6051;SDS011;3054;51.204;4.430;2022-07-03T05:33:40;10.80;;;5.30;;
6051;SDS011;3054;51.204;4.430;2022-07-03T05:36:08;6.93;;;5.23;;
6051;SDS011;3054;51.204;4.430;2022-07-03T05:38:35;11.13;;;6.70;;
6051;SDS011;3054;51.204;4.430;2022-07-03T05:41:20;7.20;;;5.87;;
6051;SDS011;3054;51.204;4.430;2022-07-03T05:43:47;12.60;;;5.83;;
6051;SDS011;3054;51.204;4.430;2022-07-03T05:46:14;12.43;;;6.10;;
6051;SDS011;3054;51.204;4.430;2022-07-03T05:48:42;14.33;;;5.80;;
6051;SDS011;3054;51.204;4.430;2022-07-03T05:51:09;11.33;;;5.50;;
6051;SDS011;3054;51.204;4.430;2022-07-03T05:53:36;10.40;;;6.33;;
6051;SDS011;3054;51.204;4.430;2022-07-03T05:56:03;7.73;;;6.00;;
6051;SDS011;3054;51.204;4.430;2022-07-03T05:58:30;8.63;;;6.40;;
6051;SDS011;3054;51.204;4.430;2022-07-03T06:00:57;10.00;;;5.50;;
6051;SDS011;3054;51.204;4.430;2022-07-03T06:03:24;10.20;;;5.70;;
6051;SDS011;3054;51.204;4.430;2022-07-03T06:05:52;7.70;;;4.70;;
6051;SDS011;3054;51.204;4.430;2022-07-03T06:08:19;11.37;;;5.60;;
6051;SDS011;3054;51.204;4.430;2022-07-03T06:10:46;12.37;;;6.40;;
6051;SDS011;3054;51.204;4.430;2022-07-03T06:13:14;7.47;;;4.67;;
6051;SDS011;3054;51.204;4.430;2022-07-03T06:15:41;7.20;;;5.00;;
6051;SDS011;3054;51.204;4.430;2022-07-03T06:18:07;12.23;;;6.63;;
6051;SDS011;3054;51.204;4.430;2022-07-03T06:20:34;6.63;;;4.77;;
6051;SDS011;3054;51.204;4.430;2022-07-03T06:23:02;10.03;;;5.03;;
6051;SDS011;3054;51.204;4.430;2022-07-03T06:25:29;14.73;;;5.50;;
6051;SDS011;3054;51.204;4.430;2022-07-03T06:27:56;10.30;;;5.40;;
6051;SDS011;3054;51.204;4.430;2022-07-03T06:30:23;6.57;;;5.23;;
6051;SDS011;3054;51.204;4.430;2022-07-03T06:32:50;14.20;;;7.57;;
6051;SDS011;3054;51.204;4.430;2022-07-03T06:35:17;10.00;;;4.87;;
6051;SDS011;3054;51.204;4.430;2022-07-03T06:37:44;12.07;;;5.10;;
6051;SDS011;3054;51.204;4.430;2022-07-03T06:40:12;9.10;;;4.43;;
6051;SDS011;3054;51.204;4.430;2022-07-03T06:42:39;12.20;;;4.40;;
6051;SDS011;3054;51.204;4.430;2022-07-03T06:45:06;9.97;;;5.03;;
6051;SDS011;3054;51.204;4.430;2022-07-03T06:47:36;6.90;;;4.23;;
6051;SDS011;3054;51.204;4.430;2022-07-03T06:50:03;6.10;;;4.00;;
6051;SDS011;3054;51.204;4.430;2022-07-03T06:52:31;9.83;;;4.70;;
6051;SDS011;3054;51.204;4.430;2022-07-03T06:54:58;8.20;;;3.97;;
6051;SDS011;3054;51.204;4.430;2022-07-03T06:57:26;8.83;;;4.50;;
6051;SDS011;3054;51.204;4.430;2022-07-03T06:59:53;7.93;;;4.27;;
6051;SDS011;3054;51.204;4.430;2022-07-03T07:02:20;7.27;;;4.67;;
6051;SDS011;3054;51.204;4.430;2022-07-03T07:04:47;9.20;;;4.17;;
6051;SDS011;3054;51.204;4.430;2022-07-03T07:07:14;5.30;;;3.17;;
6051;SDS011;3054;51.204;4.430;2022-07-03T07:09:41;5.10;;;3.77;;
6051;SDS011;3054;51.204;4.430;2022-07-03T07:12:08;6.80;;;4.23;;
6051;SDS011;3054;51.204;4.430;2022-07-03T07:14:37;6.20;;;3.67;;
6051;SDS011;3054;51.204;4.430;2022-07-03T07:17:04;8.47;;;5.30;;
6051;SDS011;3054;51.204;4.430;2022-07-03T07:19:31;10.80;;;5.03;;
6051;SDS011;3054;51.204;4.430;2022-07-03T07:21:58;8.77;;;3.90;;
6051;SDS011;3054;51.204;4.430;2022-07-03T07:24:26;15.90;;;4.57;;
6051;SDS011;3054;51.204;4.430;2022-07-03T07:26:53;4.20;;;3.00;;
6051;SDS011;3054;51.204;4.430;2022-07-03T07:29:20;6.40;;;3.47;;
6051;SDS011;3054;51.204;4.430;2022-07-03T07:31:48;11.20;;;4.27;;
6051;SDS011;3054;51.204;4.430;2022-07-03T07:34:15;7.37;;;3.90;;
6051;SDS011;3054;51.204;4.430;2022-07-03T07:36:42;6.73;;;3.70;;
6051;SDS011;3054;51.204;4.430;2022-07-03T07:39:09;4.30;;;3.17;;
6051;SDS011;3054;51.204;4.430;2022-07-03T07:41:36;5.33;;;3.33;;
6051;SDS011;3054;51.204;4.430;2022-07-03T07:44:03;6.77;;;3.60;;
6051;SDS011;3054;51.204;4.430;2022-07-03T07:46:30;5.73;;;3.83;;
6051;SDS011;3054;51.204;4.430;2022-07-03T07:48:59;16.30;;;3.87;;
6051;SDS011;3054;51.204;4.430;2022-07-03T07:51:26;9.13;;;3.40;;
6051;SDS011;3054;51.204;4.430;2022-07-03T07:53:53;9.47;;;3.37;;
6051;SDS011;3054;51.204;4.430;2022-07-03T07:56:22;7.83;;;3.17;;
6051;SDS011;3054;51.204;4.430;2022-07-03T07:58:49;11.87;;;3.67;;
6051;SDS011;3054;51.204;4.430;2022-07-03T08:01:16;5.27;;;2.90;;
6051;SDS011;3054;51.204;4.430;2022-07-03T08:04:02;6.60;;;2.30;;
6051;SDS011;3054;51.204;4.430;2022-07-03T08:06:47;3.63;;;2.17;;
6051;SDS011;3054;51.204;4.430;2022-07-03T08:09:14;5.37;;;1.90;;
6051;SDS011;3054;51.204;4.430;2022-07-03T08:11:41;3.87;;;2.13;;
6051;SDS011;3054;51.204;4.430;2022-07-03T08:14:08;6.57;;;2.00;;
6051;SDS011;3054;51.204;4.430;2022-07-03T08:16:35;6.87;;;2.83;;
6051;SDS011;3054;51.204;4.430;2022-07-03T08:19:05;3.92;;;2.20;;
6051;SDS011;3054;51.204;4.430;2022-07-03T08:21:32;5.38;;;2.83;;
6051;SDS011;3054;51.204;4.430;2022-07-03T08:23:59;3.47;;;2.20;;
6051;SDS011;3054;51.204;4.430;2022-07-03T08:26:26;7.90;;;3.35;;
6051;SDS011;3054;51.204;4.430;2022-07-03T08:28:53;4.50;;;2.13;;
6051;SDS011;3054;51.204;4.430;2022-07-03T08:31:20;3.03;;;1.90;;
6051;SDS011;3054;51.204;4.430;2022-07-03T08:33:48;3.42;;;2.05;;
6051;SDS011;3054;51.204;4.430;2022-07-03T08:36:16;5.78;;;2.28;;
6051;SDS011;3054;51.204;4.430;2022-07-03T08:38:43;3.80;;;2.22;;
6051;SDS011;3054;51.204;4.430;2022-07-03T08:41:10;5.18;;;2.38;;
6051;SDS011;3054;51.204;4.430;2022-07-03T08:43:39;3.60;;;1.80;;
6051;SDS011;3054;51.204;4.430;2022-07-03T08:46:07;2.60;;;1.55;;
6051;SDS011;3054;51.204;4.430;2022-07-03T08:48:37;4.53;;;1.67;;
6051;SDS011;3054;51.204;4.430;2022-07-03T08:51:06;4.55;;;1.88;;
6051;SDS011;3054;51.204;4.430;2022-07-03T08:53:35;5.72;;;1.90;;
6051;SDS011;3054;51.204;4.430;2022-07-03T08:56:03;4.30;;;1.90;;
6051;SDS011;3054;51.204;4.430;2022-07-03T08:58:31;5.45;;;2.10;;
6051;SDS011;3054;51.204;4.430;2022-07-03T09:00:58;5.88;;;2.53;;
6051;SDS011;3054;51.204;4.430;2022-07-03T09:03:25;6.35;;;2.13;;
6051;SDS011;3054;51.204;4.430;2022-07-03T09:05:52;4.20;;;2.25;;
6051;SDS011;3054;51.204;4.430;2022-07-03T09:08:19;4.50;;;1.88;;
6051;SDS011;3054;51.204;4.430;2022-07-03T09:10:49;5.28;;;1.80;;
6051;SDS011;3054;51.204;4.430;2022-07-03T09:13:16;6.53;;;1.90;;
6051;SDS011;3054;51.204;4.430;2022-07-03T09:15:43;3.80;;;2.10;;
6051;SDS011;3054;51.204;4.430;2022-07-03T09:18:10;2.65;;;1.45;;
6051;SDS011;3054;51.204;4.430;2022-07-03T09:20:38;4.20;;;1.63;;
6051;SDS011;3054;51.204;4.430;2022-07-03T09:23:13;6.10;;;1.48;;
6051;SDS011;3054;51.204;4.430;2022-07-03T09:25:52;4.63;;;1.38;;
6051;SDS011;3054;51.204;4.430;2022-07-03T09:28:22;2.33;;;1.27;;
6051;SDS011;3054;51.204;4.430;2022-07-03T09:30:59;9.43;;;1.42;;
6051;SDS011;3054;51.204;4.430;2022-07-03T09:33:27;2.80;;;1.40;;
6051;SDS011;3054;51.204;4.430;2022-07-03T09:35:55;4.38;;;1.52;;
6051;SDS011;3054;51.204;4.430;2022-07-03T09:38:22;2.55;;;1.80;;
6051;SDS011;3054;51.204;4.430;2022-07-03T09:40:50;4.50;;;1.33;;
6051;SDS011;3054;51.204;4.430;2022-07-03T09:43:22;3.53;;;1.40;;
6051;SDS011;3054;51.204;4.430;2022-07-03T09:45:52;2.65;;;1.10;;
6051;SDS011;3054;51.204;4.430;2022-07-03T09:48:24;3.60;;;1.38;;
6051;SDS011;3054;51.204;4.430;2022-07-03T09:51:09;2.67;;;0.95;;
6051;SDS011;3054;51.204;4.430;2022-07-03T09:53:44;1.67;;;1.05;;
6051;SDS011;3054;51.204;4.430;2022-07-03T09:56:20;1.30;;;0.82;;
6051;SDS011;3054;51.204;4.430;2022-07-03T09:59:03;1.73;;;0.75;;
6051;SDS011;3054;51.204;4.430;2022-07-03T10:01:40;1.40;;;0.95;;
6051;SDS011;3054;51.204;4.430;2022-07-03T10:04:09;3.63;;;1.08;;
6051;SDS011;3054;51.204;4.430;2022-07-03T10:06:50;2.22;;;1.05;;
6051;SDS011;3054;51.204;4.430;2022-07-03T10:09:19;3.10;;;0.80;;
6051;SDS011;3054;51.204;4.430;2022-07-03T10:11:49;5.00;;;0.98;;
6051;SDS011;3054;51.204;4.430;2022-07-03T10:14:17;2.25;;;0.82;;
6051;SDS011;3054;51.204;4.430;2022-07-03T10:16:45;5.70;;;1.00;;
6051;SDS011;3054;51.204;4.430;2022-07-03T10:19:13;2.47;;;0.90;;
6051;SDS011;3054;51.204;4.430;2022-07-03T10:21:42;2.65;;;1.00;;
6051;SDS011;3054;51.204;4.430;2022-07-03T10:24:10;6.22;;;1.33;;
6051;SDS011;3054;51.204;4.430;2022-07-03T10:26:41;4.63;;;1.30;;
6051;SDS011;3054;51.204;4.430;2022-07-03T10:29:10;6.70;;;1.55;;
6051;SDS011;3054;51.204;4.430;2022-07-03T10:31:41;4.22;;;1.20;;
6051;SDS011;3054;51.204;4.430;2022-07-03T10:34:12;3.20;;;1.05;;
6051;SDS011;3054;51.204;4.430;2022-07-03T10:36:42;2.88;;;0.93;;
6051;SDS011;3054;51.204;4.430;2022-07-03T10:39:12;1.35;;;0.88;;
6051;SDS011;3054;51.204;4.430;2022-07-03T10:41:47;2.30;;;1.10;;
6051;SDS011;3054;51.204;4.430;2022-07-03T10:44:50;4.07;;;0.85;;
6051;SDS011;3054;51.204;4.430;2022-07-03T10:47:37;3.83;;;1.27;;
6051;SDS011;3054;51.204;4.430;2022-07-03T10:50:07;3.28;;;1.10;;
6051;SDS011;3054;51.204;4.430;2022-07-03T10:52:36;1.75;;;1.05;;
6051;SDS011;3054;51.204;4.430;2022-07-03T10:55:03;8.27;;;1.10;;
6051;SDS011;3054;51.204;4.430;2022-07-03T10:57:31;1.73;;;1.38;;
6051;SDS011;3054;51.204;4.430;2022-07-03T11:00:05;1.30;;;0.98;;
6051;SDS011;3054;51.204;4.430;2022-07-03T11:02:35;2.03;;;1.00;;
6051;SDS011;3054;51.204;4.430;2022-07-03T11:05:11;3.38;;;1.00;;
6051;SDS011;3054;51.204;4.430;2022-07-03T11:08:07;1.13;;;1.02;;
6051;SDS011;3054;51.204;4.430;2022-07-03T11:10:38;2.45;;;1.02;;
6051;SDS011;3054;51.204;4.430;2022-07-03T11:13:08;2.00;;;0.75;;
6051;SDS011;3054;51.204;4.430;2022-07-03T11:15:39;1.25;;;1.15;;
6051;SDS011;3054;51.204;4.430;2022-07-03T11:18:08;6.43;;;1.00;;
6051;SDS011;3054;51.204;4.430;2022-07-03T11:20:55;3.47;;;0.93;;
6051;SDS011;3054;51.204;4.430;2022-07-03T11:26:43;3.97;;;1.23;;
6051;SDS011;3054;51.204;4.430;2022-07-03T11:29:24;3.53;;;1.48;;
6051;SDS011;3054;51.204;4.430;2022-07-03T11:31:54;3.67;;;1.20;;
6051;SDS011;3054;51.204;4.430;2022-07-03T11:34:21;3.78;;;1.10;;
6051;SDS011;3054;51.204;4.430;2022-07-03T11:36:48;2.35;;;1.23;;
6051;SDS011;3054;51.204;4.430;2022-07-03T11:39:15;2.78;;;1.00;;
6051;SDS011;3054;51.204;4.430;2022-07-03T11:41:45;2.33;;;0.90;;
6051;SDS011;3054;51.204;4.430;2022-07-03T11:44:19;5.05;;;0.93;;
6051;SDS011;3054;51.204;4.430;2022-07-03T11:46:48;2.45;;;1.02;;
6051;SDS011;3054;51.204;4.430;2022-07-03T11:49:22;2.75;;;1.10;;
6051;SDS011;3054;51.204;4.430;2022-07-03T11:51:54;4.78;;;0.90;;
6051;SDS011;3054;51.204;4.430;2022-07-03T11:54:23;3.10;;;1.55;;
6051;SDS011;3054;51.204;4.430;2022-07-03T11:56:50;4.20;;;1.20;;
6051;SDS011;3054;51.204;4.430;2022-07-03T11:59:18;3.63;;;0.90;;
6051;SDS011;3054;51.204;4.430;2022-07-03T12:01:45;1.20;;;1.10;;
6051;SDS011;3054;51.204;4.430;2022-07-03T12:04:13;6.45;;;1.15;;
6051;SDS011;3054;51.204;4.430;2022-07-03T12:06:43;3.25;;;1.00;;
6051;SDS011;3054;51.204;4.430;2022-07-03T12:09:17;5.40;;;1.00;;
6051;SDS011;3054;51.204;4.430;2022-07-03T12:11:55;2.50;;;0.90;;
6051;SDS011;3054;51.204;4.430;2022-07-03T12:14:33;4.18;;;1.48;;
6051;SDS011;3054;51.204;4.430;2022-07-03T12:17:05;1.73;;;0.93;;
6051;SDS011;3054;51.204;4.430;2022-07-03T12:19:32;2.47;;;1.27;;
6051;SDS011;3054;51.204;4.430;2022-07-03T12:22:01;2.80;;;1.17;;
6051;SDS011;3054;51.204;4.430;2022-07-03T12:24:28;2.47;;;1.35;;
6051;SDS011;3054;51.204;4.430;2022-07-03T12:26:55;1.50;;;0.90;;
6051;SDS011;3054;51.204;4.430;2022-07-03T12:29:22;3.53;;;1.55;;
6051;SDS011;3054;51.204;4.430;2022-07-03T12:31:49;2.72;;;1.30;;
6051;SDS011;3054;51.204;4.430;2022-07-03T12:34:17;4.57;;;1.48;;
6051;SDS011;3054;51.204;4.430;2022-07-03T12:39:40;3.55;;;1.70;;
6051;SDS011;3054;51.204;4.430;2022-07-03T12:42:17;2.88;;;1.63;;
6051;SDS011;3054;51.204;4.430;2022-07-03T12:44:54;1.95;;;1.73;;
6051;SDS011;3054;51.204;4.430;2022-07-03T12:47:22;5.93;;;1.63;;
6051;SDS011;3054;51.204;4.430;2022-07-03T12:49:56;2.45;;;1.95;;
6051;SDS011;3054;51.204;4.430;2022-07-03T12:52:27;3.67;;;1.50;;
6051;SDS011;3054;51.204;4.430;2022-07-03T12:54:54;1.40;;;1.25;;
6051;SDS011;3054;51.204;4.430;2022-07-03T12:57:22;4.00;;;1.70;;
6051;SDS011;3054;51.204;4.430;2022-07-03T13:00:08;3.30;;;1.70;;
6051;SDS011;3054;51.204;4.430;2022-07-03T13:02:39;2.60;;;2.35;;
6051;SDS011;3054;51.204;4.430;2022-07-03T13:05:16;2.55;;;2.05;;
6051;SDS011;3054;51.204;4.430;2022-07-03T13:07:47;2.75;;;1.42;;
6051;SDS011;3054;51.204;4.430;2022-07-03T13:10:15;1.92;;;1.20;;
6051;SDS011;3054;51.204;4.430;2022-07-03T13:12:46;2.47;;;1.42;;
6051;SDS011;3054;51.204;4.430;2022-07-03T13:15:15;2.13;;;1.10;;
6051;SDS011;3054;51.204;4.430;2022-07-03T13:17:57;5.45;;;1.52;;
6051;SDS011;3054;51.204;4.430;2022-07-03T13:20:26;8.77;;;1.42;;
6051;SDS011;3054;51.204;4.430;2022-07-03T13:22:55;8.85;;;1.20;;
6051;SDS011;3054;51.204;4.430;2022-07-03T13:25:24;2.28;;;1.50;;
6051;SDS011;3054;51.204;4.430;2022-07-03T13:27:51;3.45;;;1.33;;
6051;SDS011;3054;51.204;4.430;2022-07-03T13:30:28;2.10;;;1.30;;
6051;SDS011;3054;51.204;4.430;2022-07-03T13:32:55;2.08;;;1.05;;
6051;SDS011;3054;51.204;4.430;2022-07-03T13:35:22;1.75;;;1.15;;
6051;SDS011;3054;51.204;4.430;2022-07-03T13:37:49;2.88;;;1.42;;
6051;SDS011;3054;51.204;4.430;2022-07-03T13:40:18;5.90;;;1.45;;
6051;SDS011;3054;51.204;4.430;2022-07-03T13:42:45;5.65;;;1.25;;
6051;SDS011;3054;51.204;4.430;2022-07-03T13:45:12;5.82;;;1.20;;
6051;SDS011;3054;51.204;4.430;2022-07-03T13:47:39;5.32;;;1.10;;
6051;SDS011;3054;51.204;4.430;2022-07-03T13:50:06;6.95;;;1.58;;
6051;SDS011;3054;51.204;4.430;2022-07-03T13:52:34;5.53;;;1.33;;
6051;SDS011;3054;51.204;4.430;2022-07-03T13:55:01;7.15;;;1.60;;
6051;SDS011;3054;51.204;4.430;2022-07-03T13:57:30;3.35;;;1.17;;
6051;SDS011;3054;51.204;4.430;2022-07-03T13:59:58;1.55;;;1.20;;
6051;SDS011;3054;51.204;4.430;2022-07-03T14:02:24;4.43;;;1.45;;
6051;SDS011;3054;51.204;4.430;2022-07-03T14:04:52;2.67;;;1.25;;
6051;SDS011;3054;51.204;4.430;2022-07-03T14:07:19;5.82;;;1.10;;
6051;SDS011;3054;51.204;4.430;2022-07-03T14:09:45;4.30;;;1.65;;
6051;SDS011;3054;51.204;4.430;2022-07-03T14:12:12;2.95;;;1.52;;
6051;SDS011;3054;51.204;4.430;2022-07-03T14:14:41;3.80;;;1.20;;
6051;SDS011;3054;51.204;4.430;2022-07-03T14:17:08;3.53;;;0.98;;
6051;SDS011;3054;51.204;4.430;2022-07-03T14:19:34;6.13;;;1.15;;
6051;SDS011;3054;51.204;4.430;2022-07-03T14:22:01;2.45;;;1.48;;
6051;SDS011;3054;51.204;4.430;2022-07-03T14:24:29;3.28;;;1.05;;
6051;SDS011;3054;51.204;4.430;2022-07-03T14:26:56;2.97;;;1.00;;
6051;SDS011;3054;51.204;4.430;2022-07-03T14:29:42;2.92;;;1.30;;
6051;SDS011;3054;51.204;4.430;2022-07-03T14:32:26;2.47;;;1.23;;
6051;SDS011;3054;51.204;4.430;2022-07-03T14:34:56;3.15;;;1.30;;
6051;SDS011;3054;51.204;4.430;2022-07-03T14:37:23;4.70;;;1.05;;
6051;SDS011;3054;51.204;4.430;2022-07-03T14:39:50;3.38;;;1.10;;
6051;SDS011;3054;51.204;4.430;2022-07-03T14:42:18;3.75;;;1.17;;
6051;SDS011;3054;51.204;4.430;2022-07-03T14:44:46;7.88;;;1.20;;
6051;SDS011;3054;51.204;4.430;2022-07-03T14:47:13;1.00;;;0.90;;
6051;SDS011;3054;51.204;4.430;2022-07-03T14:49:40;3.92;;;1.60;;
6051;SDS011;3054;51.204;4.430;2022-07-03T14:52:07;4.32;;;1.35;;
6051;SDS011;3054;51.204;4.430;2022-07-03T14:54:34;1.45;;;1.02;;
6051;SDS011;3054;51.204;4.430;2022-07-03T14:57:05;4.43;;;1.17;;
6051;SDS011;3054;51.204;4.430;2022-07-03T14:59:37;2.88;;;1.10;;
6051;SDS011;3054;51.204;4.430;2022-07-03T15:02:15;1.73;;;1.40;;
6051;SDS011;3054;51.204;4.430;2022-07-03T15:04:49;4.22;;;1.08;;
6051;SDS011;3054;51.204;4.430;2022-07-03T15:07:25;2.85;;;1.25;;
6051;SDS011;3054;51.204;4.430;2022-07-03T15:09:58;2.05;;;0.90;;
6051;SDS011;3054;51.204;4.430;2022-07-03T15:12:30;5.60;;;1.48;;
6051;SDS011;3054;51.204;4.430;2022-07-03T15:14:59;5.00;;;1.58;;
6051;SDS011;3054;51.204;4.430;2022-07-03T15:17:29;4.20;;;1.27;;
6051;SDS011;3054;51.204;4.430;2022-07-03T15:19:59;5.57;;;1.00;;
6051;SDS011;3054;51.204;4.430;2022-07-03T15:22:29;6.68;;;1.08;;
6051;SDS011;3054;51.204;4.430;2022-07-03T15:24:57;2.38;;;1.30;;
6051;SDS011;3054;51.204;4.430;2022-07-03T15:27:25;3.97;;;1.08;;
6051;SDS011;3054;51.204;4.430;2022-07-03T15:29:54;4.78;;;1.55;;
6051;SDS011;3054;51.204;4.430;2022-07-03T15:32:23;4.40;;;0.95;;
6051;SDS011;3054;51.204;4.430;2022-07-03T15:34:52;7.40;;;0.90;;
6051;SDS011;3054;51.204;4.430;2022-07-03T15:37:24;1.52;;;1.02;;
6051;SDS011;3054;51.204;4.430;2022-07-03T15:40:02;3.72;;;1.45;;